createdAt,value
2023-01-08T00:02:23.681Z,3.15
2023-01-08T00:04:51.239Z,3.33
2023-01-08T00:07:18.818Z,3.35
2023-01-08T00:09:50.433Z,3.63
2023-01-08T00:12:17.943Z,3.30
2023-01-08T00:14:45.501Z,3.47
2023-01-08T00:17:13.370Z,3.30
2023-01-08T00:19:41.949Z,3.28
2023-01-08T00:22:09.563Z,3.40
2023-01-08T00:24:37.074Z,3.50
2023-01-08T00:27:05.995Z,3.13
2023-01-08T00:29:33.573Z,3.47
2023-01-08T00:32:01.123Z,3.45
2023-01-08T00:34:28.606Z,3.30
2023-01-08T00:36:56.124Z,3.28
2023-01-08T00:39:23.746Z,3.28
2023-01-08T00:41:51.294Z,3.20
2023-01-08T00:44:20.177Z,3.15
2023-01-08T00:46:47.686Z,3.15
2023-01-08T00:49:15.213Z,3.28
2023-01-08T00:51:42.705Z,3.22
2023-01-08T00:54:10.439Z,3.23
2023-01-08T00:56:37.990Z,3.40
2023-01-08T00:59:05.486Z,3.28
2023-01-08T01:01:34.608Z,3.20
2023-01-08T01:04:02.288Z,3.30
2023-01-08T01:06:30.209Z,3.10
2023-01-08T01:08:58.015Z,3.38
2023-01-08T01:11:28.103Z,3.72
2023-01-08T01:13:56.495Z,3.50
2023-01-08T01:16:24.436Z,3.60
2023-01-08T01:18:54.765Z,3.20
2023-01-08T01:21:25.802Z,3.55
2023-01-08T01:23:55.818Z,3.20
2023-01-08T01:26:24.708Z,3.60
2023-01-08T01:28:54.041Z,3.40
2023-01-08T01:31:22.635Z,3.70
2023-01-08T01:33:50.943Z,3.40
2023-01-08T01:36:23.444Z,3.50
2023-01-08T01:38:53.419Z,3.30
2023-01-08T01:41:25.930Z,3.25
2023-01-08T01:43:56.017Z,3.43
2023-01-08T01:46:32.944Z,3.17
2023-01-08T01:49:06.700Z,3.65
2023-01-08T01:51:37.313Z,3.40
2023-01-08T01:54:08.352Z,3.30
2023-01-08T01:56:35.894Z,3.07
2023-01-08T01:59:03.842Z,3.08
2023-01-08T02:01:33.060Z,3.45
2023-01-08T02:04:00.765Z,3.55
2023-01-08T02:06:39.383Z,3.38
2023-01-08T02:09:15.353Z,3.13
2023-01-08T02:11:47.978Z,3.33
2023-01-08T02:14:24.324Z,3.20
2023-01-08T02:16:58.007Z,3.17
2023-01-08T02:19:38.610Z,3.40
2023-01-08T02:22:15.987Z,3.30
2023-01-08T02:24:55.083Z,3.50
2023-01-08T02:27:26.187Z,3.58
2023-01-08T02:29:55.774Z,3.67
2023-01-08T02:32:27.052Z,3.55
2023-01-08T02:34:54.865Z,3.80
2023-01-08T02:37:22.538Z,3.15
2023-01-08T02:40:05.013Z,3.30
2023-01-08T02:42:41.418Z,3.60
2023-01-08T02:45:19.747Z,3.20
2023-01-08T02:47:52.697Z,3.63
2023-01-08T02:50:25.427Z,3.90
2023-01-08T02:53:00.586Z,3.20
2023-01-08T02:55:29.620Z,3.38
2023-01-08T02:57:59.869Z,3.40
2023-01-08T03:00:28.344Z,3.30
2023-01-08T03:03:06.337Z,3.47
2023-01-08T03:05:34.677Z,3.90
2023-01-08T03:08:03.012Z,3.40
2023-01-08T03:10:32.178Z,3.13
2023-01-08T03:13:04.776Z,3.20
2023-01-08T03:15:37.293Z,3.45
2023-01-08T03:18:10.388Z,3.10
2023-01-08T03:20:39.781Z,3.13
2023-01-08T03:23:11.030Z,3.55
2023-01-08T03:25:41.821Z,3.60
2023-01-08T03:28:16.641Z,3.63
2023-01-08T03:30:47.289Z,3.35
2023-01-08T03:33:17.223Z,3.40
2023-01-08T03:35:48.478Z,3.30
2023-01-08T03:38:21.735Z,3.43
2023-01-08T03:40:54.197Z,3.40
2023-01-08T03:43:23.070Z,3.38
2023-01-08T03:45:52.912Z,3.22
2023-01-08T03:48:22.062Z,3.50
2023-01-08T03:50:49.664Z,3.90
2023-01-08T03:53:17.271Z,3.80
2023-01-08T03:55:44.803Z,3.47
2023-01-08T03:58:12.366Z,3.63
2023-01-08T04:00:41.329Z,3.50
2023-01-08T04:03:09.479Z,3.60
2023-01-08T04:05:37.217Z,3.58
2023-01-08T04:08:04.975Z,3.20
2023-01-08T04:10:32.517Z,3.53
2023-01-08T04:13:00.097Z,3.25
2023-01-08T04:15:27.640Z,3.60
2023-01-08T04:17:56.531Z,3.20
2023-01-08T04:20:24.040Z,3.17
2023-01-08T04:22:51.629Z,3.40
2023-01-08T04:25:19.273Z,3.40
2023-01-08T04:27:46.801Z,3.60
2023-01-08T04:30:14.917Z,3.50
2023-01-08T04:32:42.476Z,3.33
2023-01-08T04:35:11.549Z,3.50
2023-01-08T04:37:39.102Z,3.50
2023-01-08T04:40:07.842Z,3.37
2023-01-08T04:42:35.388Z,3.38
2023-01-08T04:45:03.001Z,3.20
2023-01-08T04:47:30.517Z,3.45
2023-01-08T04:49:58.023Z,3.40
2023-01-08T04:52:29.158Z,3.20
2023-01-08T04:54:56.694Z,3.55
2023-01-08T04:57:24.236Z,3.33
2023-01-08T04:59:51.748Z,3.40
2023-01-08T05:02:19.424Z,3.30
2023-01-08T05:04:48.793Z,3.37
2023-01-08T05:07:16.469Z,3.42
2023-01-08T05:09:45.303Z,3.60
2023-01-08T05:12:12.796Z,3.30
2023-01-08T05:14:40.314Z,3.47
2023-01-08T05:17:07.851Z,3.40
2023-01-08T05:19:36.993Z,3.70
2023-01-08T05:22:05.573Z,3.40
2023-01-08T05:24:33.065Z,3.40
2023-01-08T05:27:01.909Z,3.33
2023-01-08T05:29:29.458Z,3.77
2023-01-08T05:31:57.000Z,3.60
2023-01-08T05:34:24.529Z,3.30
2023-01-08T05:36:52.005Z,3.50
2023-01-08T05:39:19.557Z,3.65
2023-01-08T05:41:47.109Z,3.57
2023-01-08T05:44:16.067Z,3.60
2023-01-08T05:46:43.653Z,3.45
2023-01-08T05:49:11.256Z,3.47
2023-01-08T05:51:38.823Z,3.60
2023-01-08T05:54:06.478Z,3.60
2023-01-08T05:56:33.990Z,3.55
2023-01-08T05:59:01.547Z,3.20
2023-01-08T06:01:30.440Z,3.53
2023-01-08T06:03:58.875Z,4.82
2023-01-08T06:06:26.592Z,5.67
2023-01-08T06:08:54.098Z,3.50
2023-01-08T06:11:21.832Z,3.40
2023-01-08T06:13:49.366Z,3.40
2023-01-08T06:16:17.397Z,3.53
2023-01-08T06:18:46.327Z,3.70
2023-01-08T06:21:14.232Z,3.20
2023-01-08T06:23:41.761Z,3.47
2023-01-08T06:26:09.395Z,3.60
2023-01-08T06:28:36.996Z,3.42
2023-01-08T06:31:05.135Z,3.13
2023-01-08T06:33:32.953Z,3.78
2023-01-08T06:36:04.320Z,3.42
2023-01-08T06:38:33.014Z,4.00
2023-01-08T06:41:04.527Z,4.25
2023-01-08T06:43:32.187Z,3.67
2023-01-08T06:45:59.720Z,3.17
2023-01-08T06:48:27.618Z,3.35
2023-01-08T06:50:56.167Z,3.40
2023-01-08T06:53:25.018Z,3.40
2023-01-08T06:55:56.794Z,3.10
2023-01-08T06:58:24.675Z,3.78
2023-01-08T07:00:52.309Z,4.20
2023-01-08T07:03:20.469Z,3.40
2023-01-08T07:05:50.590Z,3.20
2023-01-08T07:08:19.176Z,3.40
2023-01-08T07:10:48.147Z,3.30
2023-01-08T07:13:15.978Z,3.22
2023-01-08T07:15:44.331Z,3.50
2023-01-08T07:18:13.451Z,3.50
2023-01-08T07:20:41.034Z,3.40
2023-01-08T07:23:11.209Z,3.40
2023-01-08T07:25:38.739Z,3.50
2023-01-08T07:28:07.869Z,3.90
2023-01-08T07:30:35.345Z,3.22
2023-01-08T07:33:03.121Z,3.40
2023-01-08T07:35:31.125Z,3.40
2023-01-08T07:37:58.815Z,3.35
2023-01-08T07:40:26.322Z,3.30
2023-01-08T07:43:00.421Z,3.60
2023-01-08T07:45:30.614Z,3.70
2023-01-08T07:47:58.930Z,3.47
2023-01-08T07:50:27.265Z,3.50
2023-01-08T07:52:58.365Z,3.25
2023-01-08T07:55:26.179Z,3.40
2023-01-08T07:57:53.691Z,3.53
2023-01-08T08:00:21.292Z,3.22
2023-01-08T08:02:50.297Z,3.22
2023-01-08T08:05:18.311Z,3.33
2023-01-08T08:07:45.860Z,3.28
2023-01-08T08:10:13.427Z,3.40
2023-01-08T08:12:41.026Z,2.92
2023-01-08T08:15:09.754Z,3.53
2023-01-08T08:17:37.320Z,3.50
2023-01-08T08:20:07.348Z,3.50
2023-01-08T08:22:34.883Z,3.57
2023-01-08T08:25:02.414Z,3.20
2023-01-08T08:27:29.978Z,3.22
2023-01-08T08:29:57.526Z,3.22
2023-01-08T08:32:25.092Z,3.38
2023-01-08T08:34:52.592Z,3.60
2023-01-08T08:37:21.471Z,4.30
2023-01-08T08:39:49.028Z,5.90
2023-01-08T08:42:16.512Z,3.50
2023-01-08T08:44:44.051Z,3.38
2023-01-08T08:47:11.608Z,3.30
2023-01-08T08:49:39.897Z,3.65
2023-01-08T08:52:07.826Z,3.35
2023-01-08T08:54:41.262Z,9.18
2023-01-08T08:57:09.285Z,9.07
2023-01-08T08:59:37.417Z,7.07
2023-01-08T09:02:05.715Z,6.95
2023-01-08T09:04:34.094Z,5.53
2023-01-08T09:07:02.017Z,5.20
2023-01-08T09:09:29.997Z,5.88
2023-01-08T09:11:58.908Z,4.13
2023-01-08T09:14:26.446Z,4.70
2023-01-08T09:16:54.032Z,7.68
2023-01-08T09:19:22.697Z,10.07
2023-01-08T09:21:50.569Z,8.60
2023-01-08T09:24:18.106Z,4.50
2023-01-08T09:26:45.683Z,5.55
2023-01-08T09:29:14.559Z,13.15
2023-01-08T09:31:42.159Z,6.47
2023-01-08T09:34:09.751Z,5.10
2023-01-08T09:36:37.251Z,4.03
2023-01-08T09:39:04.949Z,5.10
2023-01-08T09:41:35.019Z,4.80
2023-01-08T09:44:05.637Z,4.30
2023-01-08T09:46:35.515Z,3.85
2023-01-08T09:49:07.658Z,4.20
2023-01-08T09:51:37.887Z,4.20
2023-01-08T09:54:07.481Z,3.88
2023-01-08T09:56:36.117Z,5.10
2023-01-08T09:59:05.906Z,4.05
2023-01-08T10:01:38.688Z,4.53
2023-01-08T10:04:08.092Z,9.75
2023-01-08T10:06:35.642Z,4.68
2023-01-08T10:09:03.954Z,3.97
2023-01-08T10:11:43.516Z,4.35
2023-01-08T10:14:21.759Z,5.57
2023-01-08T10:16:56.266Z,6.28
2023-01-08T10:19:24.217Z,4.22
2023-01-08T10:21:52.738Z,5.10
2023-01-08T10:24:32.758Z,4.13
2023-01-08T10:27:07.184Z,4.67
2023-01-08T10:29:34.942Z,4.03
2023-01-08T10:32:10.816Z,5.88
2023-01-08T10:34:45.905Z,3.58
2023-01-08T10:37:27.645Z,3.60
2023-01-08T10:39:57.429Z,2.80
2023-01-08T10:42:25.314Z,3.20
2023-01-08T10:44:58.344Z,3.53
2023-01-08T10:47:29.516Z,2.70
2023-01-08T10:49:58.401Z,2.70
2023-01-08T10:52:29.352Z,2.53
2023-01-08T10:54:56.960Z,3.05
2023-01-08T10:57:27.382Z,2.67
2023-01-08T10:59:55.537Z,2.70
2023-01-08T11:02:35.778Z,2.28
2023-01-08T11:05:07.424Z,2.70
2023-01-08T11:07:35.536Z,2.42
2023-01-08T11:10:05.286Z,2.55
2023-01-08T11:12:36.810Z,2.00
2023-01-08T11:15:05.363Z,2.08
2023-01-08T11:17:35.481Z,2.27
2023-01-08T11:20:19.870Z,2.80
2023-01-08T11:22:47.657Z,2.05
2023-01-08T11:25:21.597Z,2.13
2023-01-08T11:27:51.286Z,2.30
2023-01-08T11:30:22.002Z,2.57
2023-01-08T11:32:56.876Z,2.50
2023-01-08T11:35:28.305Z,2.45
2023-01-08T11:37:59.505Z,2.55
2023-01-08T11:40:38.459Z,2.90
2023-01-08T11:43:25.687Z,2.77
2023-01-08T11:46:04.633Z,2.70
2023-01-08T11:48:49.432Z,2.70
2023-01-08T11:51:45.221Z,2.75
2023-01-08T11:54:25.138Z,2.42
2023-01-08T11:57:09.478Z,2.60
2023-01-08T11:59:54.048Z,2.75
2023-01-08T12:02:31.735Z,2.70
2023-01-08T12:05:19.971Z,2.53
2023-01-08T12:07:53.994Z,2.70
2023-01-08T12:10:25.954Z,2.60
2023-01-08T12:13:03.596Z,2.35
2023-01-08T12:15:41.768Z,2.17
2023-01-08T12:18:32.072Z,2.10
2023-01-08T12:21:07.269Z,2.00
2023-01-08T12:23:50.003Z,2.33
2023-01-08T12:26:20.762Z,2.53
2023-01-08T12:29:20.409Z,2.30
2023-01-08T12:32:09.376Z,2.20
2023-01-08T12:34:52.111Z,1.88
2023-01-08T12:37:27.060Z,1.80
2023-01-08T12:40:06.980Z,2.10
2023-01-08T12:42:37.494Z,2.05
2023-01-08T12:45:13.871Z,1.85
2023-01-08T12:47:44.510Z,2.05
2023-01-08T12:50:26.017Z,1.83
2023-01-08T12:53:02.430Z,1.80
2023-01-08T12:55:40.958Z,1.75
2023-01-08T12:58:22.433Z,2.00
2023-01-08T13:00:57.394Z,1.73
2023-01-08T13:03:28.581Z,1.70
2023-01-08T13:06:08.009Z,1.67
2023-01-08T13:08:38.958Z,1.70
2023-01-08T13:11:07.691Z,1.42
2023-01-08T13:13:37.638Z,1.80
2023-01-08T13:16:18.275Z,1.80
2023-01-08T13:18:53.488Z,1.90
2023-01-08T13:21:33.279Z,2.00
2023-01-08T13:24:04.864Z,2.25
2023-01-08T13:26:34.755Z,1.92
2023-01-08T13:29:25.659Z,1.90
2023-01-08T13:31:53.343Z,2.28
2023-01-08T13:34:23.702Z,1.98
2023-01-08T13:36:58.634Z,1.90
2023-01-08T13:39:33.894Z,2.17
2023-01-08T13:42:23.560Z,2.17
2023-01-08T13:44:52.987Z,2.22
2023-01-08T13:47:28.603Z,2.40
2023-01-08T13:49:57.178Z,2.60
2023-01-08T13:52:32.185Z,2.20
2023-01-08T13:55:03.395Z,2.10
2023-01-08T13:57:38.360Z,2.05
2023-01-08T14:00:08.738Z,1.70
2023-01-08T14:02:50.006Z,1.83
2023-01-08T14:05:24.389Z,2.10
2023-01-08T14:07:51.924Z,1.90
2023-01-08T14:10:21.625Z,1.90
2023-01-08T14:12:49.817Z,1.90
2023-01-08T14:15:26.086Z,1.70
2023-01-08T14:17:54.952Z,2.65
2023-01-08T14:20:30.088Z,2.00
2023-01-08T14:22:57.828Z,1.73
2023-01-08T14:25:26.781Z,1.98
2023-01-08T14:28:00.440Z,2.10
2023-01-08T14:30:28.617Z,2.05
2023-01-08T14:32:57.450Z,1.90
2023-01-08T14:35:32.537Z,1.88
2023-01-08T14:38:01.486Z,2.08
2023-01-08T14:40:33.568Z,1.95
2023-01-08T14:43:08.370Z,1.85
2023-01-08T14:45:37.709Z,1.70
2023-01-08T14:48:12.343Z,1.80
2023-01-08T14:50:42.420Z,1.90
2023-01-08T14:53:21.353Z,1.70
2023-01-08T14:55:52.226Z,1.80
2023-01-08T14:58:22.544Z,1.83
2023-01-08T15:00:53.845Z,1.80
2023-01-08T15:03:31.802Z,3.13
2023-01-08T15:05:59.896Z,1.60
2023-01-08T15:08:33.514Z,2.90
2023-01-08T15:11:05.337Z,5.10
2023-01-08T15:13:35.133Z,3.30
2023-01-08T15:16:08.683Z,2.55
2023-01-08T15:18:43.799Z,3.13
2023-01-08T15:21:11.768Z,3.60
2023-01-08T15:23:42.892Z,2.70
2023-01-08T15:26:13.291Z,2.42
2023-01-08T15:28:46.025Z,2.25
2023-01-08T15:31:24.527Z,3.25
2023-01-08T15:33:52.124Z,3.45
2023-01-08T15:36:21.201Z,2.87
2023-01-08T15:38:48.884Z,4.05
2023-01-08T15:41:41.057Z,4.00
2023-01-08T15:44:08.498Z,4.50
2023-01-08T15:46:36.197Z,2.50
2023-01-08T15:49:03.754Z,2.60
2023-01-08T15:51:34.089Z,2.42
2023-01-08T15:54:03.163Z,3.13
2023-01-08T15:56:32.147Z,3.22
2023-01-08T15:58:59.702Z,6.03
2023-01-08T16:01:28.607Z,3.27
2023-01-08T16:03:56.221Z,3.10
2023-01-08T16:06:23.923Z,2.80
2023-01-08T16:08:51.923Z,3.90
2023-01-08T16:11:20.415Z,3.25
2023-01-08T16:13:49.284Z,3.00
2023-01-08T16:16:17.356Z,3.20
2023-01-08T16:18:45.156Z,3.00
2023-01-08T16:21:13.588Z,3.10
2023-01-08T16:23:42.299Z,3.38
2023-01-08T16:26:11.834Z,3.23
2023-01-08T16:28:39.675Z,4.05
2023-01-08T16:31:09.376Z,3.85
2023-01-08T16:33:37.301Z,3.97
2023-01-08T16:36:06.516Z,3.75
2023-01-08T16:38:35.022Z,4.80
2023-01-08T16:41:03.040Z,4.93
2023-01-08T16:43:32.075Z,3.28
2023-01-08T16:46:03.030Z,3.65
2023-01-08T16:48:32.127Z,3.35
2023-01-08T16:51:05.794Z,4.87
2023-01-08T16:53:33.458Z,3.20
2023-01-08T16:56:01.037Z,2.80
2023-01-08T16:58:29.935Z,3.05
2023-01-08T17:00:58.319Z,3.50
2023-01-08T17:03:26.016Z,3.20
2023-01-08T17:05:59.980Z,3.20
2023-01-08T17:08:27.992Z,3.28
2023-01-08T17:10:55.553Z,2.80
2023-01-08T17:13:23.145Z,3.15
2023-01-08T17:15:52.953Z,4.00
2023-01-08T17:18:20.600Z,3.60
2023-01-08T17:20:53.296Z,3.97
2023-01-08T17:23:26.978Z,4.10
2023-01-08T17:25:54.944Z,4.13
2023-01-08T17:28:25.095Z,4.80
2023-01-08T17:30:53.087Z,4.30
2023-01-08T17:33:21.485Z,3.85
2023-01-08T17:35:49.151Z,3.95
2023-01-08T17:38:16.841Z,3.90
2023-01-08T17:40:45.787Z,3.77
2023-01-08T17:43:13.375Z,3.63
2023-01-08T17:45:41.275Z,3.53
2023-01-08T17:48:09.129Z,3.55
2023-01-08T17:50:39.213Z,3.80
2023-01-08T17:53:06.771Z,3.10
2023-01-08T17:55:34.468Z,3.22
2023-01-08T17:58:03.580Z,2.78
2023-01-08T18:00:31.141Z,4.05
2023-01-08T18:02:58.710Z,3.03
2023-01-08T18:05:26.317Z,3.17
2023-01-08T18:07:53.864Z,3.08
2023-01-08T18:10:21.410Z,2.40
2023-01-08T18:12:48.949Z,2.65
2023-01-08T18:15:17.949Z,2.42
2023-01-08T18:17:45.489Z,2.40
2023-01-08T18:20:13.459Z,2.10
2023-01-08T18:22:43.001Z,2.30
2023-01-08T18:25:12.446Z,2.30
2023-01-08T18:27:40.044Z,2.30
2023-01-08T18:30:08.956Z,2.40
2023-01-08T18:32:37.875Z,2.30
2023-01-08T18:35:06.031Z,2.42
2023-01-08T18:37:33.757Z,3.97
2023-01-08T18:40:01.403Z,6.20
2023-01-08T18:42:30.239Z,5.37
2023-01-08T18:44:58.551Z,5.25
2023-01-08T18:47:28.655Z,3.17
2023-01-08T18:49:59.839Z,6.40
2023-01-08T18:52:27.433Z,7.53
2023-01-08T18:54:55.011Z,9.10
2023-01-08T18:57:22.643Z,3.67
2023-01-08T18:59:50.547Z,5.60
2023-01-08T19:02:21.372Z,6.80
2023-01-08T19:04:50.060Z,6.82
2023-01-08T19:07:20.101Z,3.30
2023-01-08T19:09:47.698Z,3.30
2023-01-08T19:12:15.261Z,3.50
2023-01-08T19:14:43.076Z,2.80
2023-01-08T19:17:10.659Z,3.38
2023-01-08T19:19:38.459Z,2.50
2023-01-08T19:22:05.965Z,3.17
2023-01-08T19:24:36.824Z,2.80
2023-01-08T19:27:04.447Z,3.20
2023-01-08T19:29:31.988Z,3.60
2023-01-08T19:31:59.524Z,3.13
2023-01-08T19:34:27.146Z,3.50
2023-01-08T19:36:55.031Z,3.70
2023-01-08T19:39:22.715Z,3.40
2023-01-08T19:42:11.436Z,3.40
2023-01-08T19:44:39.823Z,2.97
2023-01-08T19:47:08.269Z,2.90
2023-01-08T19:49:35.930Z,3.00
2023-01-08T19:52:03.439Z,2.72
2023-01-08T19:54:30.998Z,2.72
2023-01-08T19:56:59.875Z,2.60
2023-01-08T19:59:27.480Z,2.40
2023-01-08T20:01:55.117Z,2.90
2023-01-08T20:04:22.883Z,2.83
2023-01-08T20:06:52.227Z,2.80
2023-01-08T20:09:19.857Z,2.90
2023-01-08T20:11:47.424Z,2.90
2023-01-08T20:14:16.378Z,2.78
2023-01-08T20:16:43.968Z,5.60
2023-01-08T20:19:11.508Z,3.80
2023-01-08T20:21:39.338Z,2.87
2023-01-08T20:24:10.450Z,2.90
2023-01-08T20:26:38.853Z,3.00
2023-01-08T20:29:06.967Z,3.35
2023-01-08T20:31:36.331Z,3.88
2023-01-08T20:34:06.196Z,3.87
2023-01-08T20:36:35.559Z,4.03
2023-01-08T20:39:07.206Z,3.92
2023-01-08T20:41:34.780Z,3.92
2023-01-08T20:44:06.469Z,3.97
2023-01-08T20:46:37.093Z,4.10
2023-01-08T20:49:07.016Z,5.63
2023-01-08T20:51:36.735Z,5.05
2023-01-08T20:54:06.539Z,4.20
2023-01-08T20:56:34.478Z,4.28
2023-01-08T20:59:02.798Z,4.70
2023-01-08T21:01:33.790Z,4.90
2023-01-08T21:04:05.149Z,5.22
2023-01-08T21:06:34.186Z,5.68
2023-01-08T21:09:06.567Z,4.43
2023-01-08T21:11:35.408Z,4.10
2023-01-08T21:14:03.628Z,3.58
2023-01-08T21:16:34.659Z,3.67
2023-01-08T21:19:04.009Z,3.50
2023-01-08T21:21:33.346Z,3.83
2023-01-08T21:24:04.156Z,3.57
2023-01-08T21:26:32.353Z,3.60
2023-01-08T21:29:02.898Z,3.33
2023-01-08T21:31:30.895Z,3.60
2023-01-08T21:34:00.553Z,3.50
2023-01-08T21:36:31.351Z,3.50
2023-01-08T21:39:00.126Z,3.35
2023-01-08T21:41:46.321Z,3.30
2023-01-08T21:44:34.265Z,3.10
2023-01-08T21:47:02.803Z,3.25
2023-01-08T21:49:31.682Z,3.00
2023-01-08T21:52:18.071Z,3.25
2023-01-08T21:54:45.553Z,3.30
2023-01-08T21:57:13.150Z,3.28
2023-01-08T21:59:40.788Z,3.35
2023-01-08T22:02:08.605Z,3.30
2023-01-08T22:04:37.127Z,3.45
2023-01-08T22:07:05.970Z,3.10
2023-01-08T22:09:33.511Z,3.47
2023-01-08T22:12:01.088Z,3.08
2023-01-08T22:14:28.586Z,3.20
2023-01-08T22:16:56.105Z,3.65
2023-01-08T22:19:23.649Z,3.22
2023-01-08T22:21:51.211Z,3.50
2023-01-08T22:24:20.052Z,3.47
2023-01-08T22:26:48.561Z,3.40
2023-01-08T22:29:16.193Z,3.35
2023-01-08T22:31:43.826Z,3.45
2023-01-08T22:34:17.018Z,3.70
2023-01-08T22:36:44.867Z,3.83
2023-01-08T22:39:13.166Z,3.47
2023-01-08T22:41:44.518Z,3.92
2023-01-08T22:44:12.912Z,3.65
2023-01-08T22:46:40.565Z,3.80
2023-01-08T22:49:08.171Z,3.30
2023-01-08T22:51:35.845Z,3.60
2023-01-08T22:54:03.391Z,3.38
2023-01-08T22:56:30.930Z,3.58
2023-01-08T22:59:00.353Z,3.80
2023-01-08T23:01:28.845Z,3.35
2023-01-08T23:03:58.879Z,4.10
2023-01-08T23:06:28.550Z,4.30
2023-01-08T23:08:56.840Z,4.03
2023-01-08T23:11:25.184Z,3.97
2023-01-08T23:13:53.409Z,3.80
2023-01-08T23:16:25.158Z,3.90
2023-01-08T23:18:53.908Z,3.72
2023-01-08T23:21:23.501Z,3.80
2023-01-08T23:23:52.507Z,3.72
2023-01-08T23:26:22.206Z,3.53
2023-01-08T23:28:51.522Z,3.63
2023-01-08T23:31:21.103Z,3.90
2023-01-08T23:33:50.269Z,4.18
2023-01-08T23:36:20.840Z,3.92
2023-01-08T23:38:49.868Z,4.05
2023-01-08T23:41:17.952Z,3.77
2023-01-08T23:43:45.945Z,3.50
2023-01-08T23:46:13.953Z,3.72
2023-01-08T23:48:42.566Z,3.60
2023-01-08T23:51:11.590Z,3.63
2023-01-08T23:53:39.184Z,3.30
2023-01-08T23:56:07.432Z,3.10
2023-01-08T23:58:34.966Z,3.55
